tititudorancea.com
Station Historical Data
Daily Summary for February 10, 2019 Units:  Both    English   Metric
« Previous Day
Next Day »
Daily Weekly Monthly Yearly Custom
  High: Low: Average:
Temperature: TemperatureF °F /  -17.8 °C 45.4 °F /  7.4 °C 60.8 °F /  16 °C
Dew Point: DewpointF °F /  -17.8 °C 42.0 °F /  5.6 °C 47.3 °F /  8.5 °C
Humidity: Humidity % 39 % 64 %
Wind Speed: WindSpeedMPH mph /  0 km/h - 4.2 mph /  6.8 km/h
Wind Gust: WindSpeedGustMPH mph /  0 km/h - -
Wind:- - West
Pressure: PressureIn in /  0 hPa 29.70 in /  1005.6 hPa -
Precipitation: 0.00 in /  0 mm    
Historical Graphs
 
 
Ararat weather Find more about Weather in Ararat, AU


 



 


Tabular Data for February 10, 2019
Time Temperature Dew Point Pressure Wind Wind Speed Wind Gust Humidity Rainfall Rate (Hourly)
TemperatureF °F /  -17.8 °C DewpointF °F /  -17.8 °C PressureIn in /  0 hPa Calm     Humidity % HourlyPrecipIn in /  0 mm
00:04 52.1 °F /  11.2 °C 42.2 °F /  5.7 °C 29.81 in /  1009.4 hPa SSW 3.5 mph /  5.6 km/h 2.7 mph /  4.3 km/h 69 % 0.00 in /  0 mm
00:09 52.0 °F /  11.1 °C 42.1 °F /  5.6 °C 29.82 in /  1009.7 hPa SSW 3.5 mph /  5.6 km/h 2.9 mph /  4.7 km/h 69 % 0.00 in /  0 mm
00:14 52.0 °F /  11.1 °C 42.1 °F /  5.6 °C 29.82 in /  1009.7 hPa SSW 4.6 mph /  7.4 km/h 4.0 mph /  6.4 km/h 69 % 0.00 in /  0 mm
00:19 52.3 °F /  11.3 °C 42.8 °F /  6 °C 29.81 in /  1009.4 hPa SSW 8.1 mph /  13 km/h 4.7 mph /  7.6 km/h 70 % 0.00 in /  0 mm
00:24 52.6 °F /  11.4 °C 43.1 °F /  6.2 °C 29.81 in /  1009.4 hPa SW 13.8 mph /  22.2 km/h 7.3 mph /  11.7 km/h 70 % 0.00 in /  0 mm
00:29 52.6 °F /  11.4 °C 43.1 °F /  6.2 °C 29.81 in /  1009.4 hPa SW 7.0 mph /  11.3 km/h 6.1 mph /  9.8 km/h 70 % 0.00 in /  0 mm
00:34 52.5 °F /  11.4 °C 43.0 °F /  6.1 °C 29.81 in /  1009.4 hPa SW 4.0 mph /  6.4 km/h 3.7 mph /  6 km/h 70 % 0.00 in /  0 mm
00:39 52.3 °F /  11.3 °C 42.8 °F /  6 °C 29.81 in /  1009.4 hPa SW 7.0 mph /  11.3 km/h 6.5 mph /  10.5 km/h 70 % 0.00 in /  0 mm
00:44 52.3 °F /  11.3 °C 43.2 °F /  6.2 °C 29.81 in /  1009.4 hPa SW 4.6 mph /  7.4 km/h 4.6 mph /  7.4 km/h 71 % 0.00 in /  0 mm
00:49 52.2 °F /  11.2 °C 43.1 °F /  6.2 °C 29.81 in /  1009.4 hPa SW 9.2 mph /  14.8 km/h 7.2 mph /  11.6 km/h 71 % 0.00 in /  0 mm
00:54 52.3 °F /  11.3 °C 43.2 °F /  6.2 °C 29.81 in /  1009.4 hPa SW 11.0 mph /  17.7 km/h 8.7 mph /  14 km/h 71 % 0.00 in /  0 mm
00:59 52.3 °F /  11.3 °C 43.2 °F /  6.2 °C 29.81 in /  1009.4 hPa SW 8.1 mph /  13 km/h 6.0 mph /  9.7 km/h 71 % 0.00 in /  0 mm
01:04 52.3 °F /  11.3 °C 43.2 °F /  6.2 °C 29.81 in /  1009.4 hPa SW 11.5 mph /  18.5 km/h 4.8 mph /  7.7 km/h 71 % 0.00 in /  0 mm
01:09 52.2 °F /  11.2 °C 43.1 °F /  6.2 °C 29.81 in /  1009.4 hPa SW 8.1 mph /  13 km/h 6.2 mph /  10 km/h 71 % 0.00 in /  0 mm
01:14 52.2 °F /  11.2 °C 43.1 °F /  6.2 °C 29.82 in /  1009.7 hPa SW 8.1 mph /  13 km/h 7.6 mph /  12.2 km/h 71 % 0.00 in /  0 mm
01:19 52.2 °F /  11.2 °C 43.1 °F /  6.2 °C 29.82 in /  1009.7 hPa SW 9.2 mph /  14.8 km/h 5.1 mph /  8.2 km/h 71 % 0.00 in /  0 mm
01:24 52.1 °F /  11.2 °C 43.0 °F /  6.1 °C 29.81 in /  1009.4 hPa SW 6.9 mph /  11.1 km/h 4.1 mph /  6.6 km/h 71 % 0.00 in /  0 mm
01:29 51.9 °F /  11.1 °C 43.2 °F /  6.2 °C 29.81 in /  1009.4 hPa SW 6.9 mph /  11.1 km/h 4.9 mph /  7.9 km/h 72 % 0.00 in /  0 mm
01:34 51.8 °F /  11 °C 43.1 °F /  6.2 °C 29.81 in /  1009.4 hPa SW 5.8 mph /  9.3 km/h 3.8 mph /  6.1 km/h 72 % 0.00 in /  0 mm
01:39 51.6 °F /  10.9 °C 42.9 °F /  6.1 °C 29.81 in /  1009.4 hPa SW 3.5 mph /  5.6 km/h 1.4 mph /  2.3 km/h 72 % 0.00 in /  0 mm
01:44 51.5 °F /  10.8 °C 43.1 °F /  6.2 °C 29.81 in /  1009.4 hPa SW 2.3 mph /  3.7 km/h 1.7 mph /  2.7 km/h 73 % 0.00 in /  0 mm
01:49 51.3 °F /  10.7 °C 42.9 °F /  6.1 °C 29.81 in /  1009.4 hPa North 3.5 mph /  5.6 km/h 1.1 mph /  1.8 km/h 73 % 0.00 in /  0 mm
01:54 51.2 °F /  10.7 °C 42.8 °F /  6 °C 29.81 in /  1009.4 hPa North 3.5 mph /  5.6 km/h 2.3 mph /  3.7 km/h 73 % 0.00 in /  0 mm
01:59 51.0 °F /  10.6 °C 43.0 °F /  6.1 °C 29.81 in /  1009.4 hPa SW 3.5 mph /  5.6 km/h 2.2 mph /  3.5 km/h 74 % 0.00 in /  0 mm
02:04 50.9 °F /  10.5 °C 42.9 °F /  6.1 °C 29.80 in /  1009 hPa SW 3.5 mph /  5.6 km/h 1.8 mph /  2.9 km/h 74 % 0.00 in /  0 mm
02:09 50.8 °F /  10.4 °C 42.8 °F /  6 °C 29.81 in /  1009.4 hPa SW 3.5 mph /  5.6 km/h 1.9 mph /  3.1 km/h 74 % 0.00 in /  0 mm
02:14 50.8 °F /  10.4 °C 42.8 °F /  6 °C 29.80 in /  1009 hPa SW 3.5 mph /  5.6 km/h 2.2 mph /  3.5 km/h 74 % 0.00 in /  0 mm
02:19 50.8 °F /  10.4 °C 43.2 °F /  6.2 °C 29.80 in /  1009 hPa North 2.3 mph /  3.7 km/h 1.1 mph /  1.8 km/h 75 % 0.00 in /  0 mm
02:24 50.8 °F /  10.4 °C 42.8 °F /  6 °C 29.80 in /  1009 hPa SW 1.2 mph /  1.9 km/h 0.4 mph /  0.6 km/h 74 % 0.00 in /  0 mm
02:29 50.6 °F /  10.3 °C 42.6 °F /  5.9 °C 29.80 in /  1009 hPa Calm     74 % 0.00 in /  0 mm
02:34 50.4 °F /  10.2 °C 42.8 °F /  6 °C 29.80 in /  1009 hPa Calm     75 % 0.00 in /  0 mm
02:39 50.1 °F /  10.1 °C 42.5 °F /  5.8 °C 29.80 in /  1009 hPa Calm     75 % 0.00 in /  0 mm
02:44 49.7 °F /  9.8 °C 42.1 °F /  5.6 °C 29.80 in /  1009 hPa Calm     75 % 0.00 in /  0 mm
02:49 49.3 °F /  9.6 °C 42.1 °F /  5.6 °C 29.80 in /  1009 hPa Calm     76 % 0.00 in /  0 mm
02:54 49.0 °F /  9.4 °C 42.1 °F /  5.6 °C 29.80 in /  1009 hPa Calm     77 % 0.00 in /  0 mm
02:59 48.6 °F /  9.2 °C 42.0 °F /  5.6 °C 29.80 in /  1009 hPa Calm     78 % 0.00 in /  0 mm
03:04 48.3 °F /  9.1 °C 42.1 °F /  5.6 °C 29.80 in /  1009 hPa North 1.2 mph /  1.9 km/h 0.2 mph /  0.3 km/h 79 % 0.00 in /  0 mm
03:09 48.1 °F /  8.9 °C 42.5 °F /  5.8 °C 29.80 in /  1009 hPa North 2.3 mph /  3.7 km/h 1.3 mph /  2.1 km/h 81 % 0.00 in /  0 mm
03:14 48.0 °F /  8.9 °C 42.4 °F /  5.8 °C 29.80 in /  1009 hPa SW 2.3 mph /  3.7 km/h   81 % 0.00 in /  0 mm
03:19 47.9 °F /  8.8 °C 42.7 °F /  5.9 °C 29.80 in /  1009 hPa Calm     82 % 0.00 in /  0 mm
03:24 48.0 °F /  8.9 °C 43.1 °F /  6.2 °C 29.80 in /  1009 hPa Calm     83 % 0.00 in /  0 mm
03:29 48.0 °F /  8.9 °C 43.1 °F /  6.2 °C 29.80 in /  1009 hPa SW 2.3 mph /  3.7 km/h 0.5 mph /  0.8 km/h 83 % 0.00 in /  0 mm
03:34 48.0 °F /  8.9 °C 43.1 °F /  6.2 °C 29.79 in /  1008.7 hPa Calm     83 % 0.00 in /  0 mm
03:39 47.9 °F /  8.8 °C 43.3 °F /  6.3 °C 29.79 in /  1008.7 hPa Calm     84 % 0.00 in /  0 mm
03:44 47.7 °F /  8.7 °C 43.1 °F /  6.2 °C 29.79 in /  1008.7 hPa Calm     84 % 0.00 in /  0 mm
03:49 47.5 °F /  8.6 °C 42.9 °F /  6.1 °C 29.79 in /  1008.7 hPa Calm     84 % 0.00 in /  0 mm
03:54 47.3 °F /  8.5 °C 42.7 °F /  5.9 °C 29.79 in /  1008.7 hPa Calm     84 % 0.00 in /  0 mm
03:59 47.1 °F /  8.4 °C 42.8 °F /  6 °C 29.79 in /  1008.7 hPa Calm     85 % 0.00 in /  0 mm
04:04 47.0 °F /  8.3 °C 42.7 °F /  5.9 °C 29.79 in /  1008.7 hPa Calm     85 % 0.00 in /  0 mm
04:09 47.0 °F /  8.3 °C 43.0 °F /  6.1 °C 29.79 in /  1008.7 hPa Calm     86 % 0.00 in /  0 mm
04:14 47.1 °F /  8.4 °C 43.1 °F /  6.2 °C 29.79 in /  1008.7 hPa Calm     86 % 0.00 in /  0 mm
04:19 47.4 °F /  8.6 °C 43.7 °F /  6.5 °C 29.79 in /  1008.7 hPa SW 2.3 mph /  3.7 km/h   87 % 0.00 in /  0 mm
04:24 47.8 °F /  8.8 °C 44.1 °F /  6.7 °C 29.79 in /  1008.7 hPa Calm     87 % 0.00 in /  0 mm
04:29 48.0 °F /  8.9 °C 44.3 °F /  6.8 °C 29.79 in /  1008.7 hPa SW 1.0 mph /  1.6 km/h 0.4 mph /  0.6 km/h 87 % 0.00 in /  0 mm
04:34 48.1 °F /  8.9 °C 44.4 °F /  6.9 °C 29.79 in /  1008.7 hPa SW 2.0 mph /  3.2 km/h 0.2 mph /  0.3 km/h 87 % 0.00 in /  0 mm
04:39 48.4 °F /  9.1 °C 44.7 °F /  7.1 °C 29.79 in /  1008.7 hPa SW 3.5 mph /  5.6 km/h 1.8 mph /  2.9 km/h 87 % 0.00 in /  0 mm
04:44 48.5 °F /  9.2 °C 44.8 °F /  7.1 °C 29.79 in /  1008.7 hPa Calm     87 % 0.00 in /  0 mm
04:49 48.4 °F /  9.1 °C 44.7 °F /  7.1 °C 29.78 in /  1008.4 hPa Calm     87 % 0.00 in /  0 mm
04:54 48.4 °F /  9.1 °C 44.7 °F /  7.1 °C 29.78 in /  1008.4 hPa SW 3.5 mph /  5.6 km/h 0.3 mph /  0.5 km/h 87 % 0.00 in /  0 mm
04:59 48.2 °F /  9 °C 44.2 °F /  6.8 °C 29.78 in /  1008.4 hPa SW 2.3 mph /  3.7 km/h   86 % 0.00 in /  0 mm
05:04 48.1 °F /  8.9 °C 44.4 °F /  6.9 °C 29.78 in /  1008.4 hPa SW 3.5 mph /  5.6 km/h 1.4 mph /  2.3 km/h 87 % 0.00 in /  0 mm
05:09 48.1 °F /  8.9 °C 44.4 °F /  6.9 °C 29.78 in /  1008.4 hPa SW 2.3 mph /  3.7 km/h 0.1 mph /  0.2 km/h 87 % 0.00 in /  0 mm
05:14 48.1 °F /  8.9 °C 44.4 °F /  6.9 °C 29.78 in /  1008.4 hPa Calm     87 % 0.00 in /  0 mm
05:19 48.2 °F /  9 °C 44.5 °F /  6.9 °C 29.78 in /  1008.4 hPa Calm     87 % 0.00 in /  0 mm
05:24 48.2 °F /  9 °C 44.2 °F /  6.8 °C 29.78 in /  1008.4 hPa Calm     86 % 0.00 in /  0 mm
05:29 48.1 °F /  8.9 °C 44.1 °F /  6.7 °C 29.78 in /  1008.4 hPa Calm     86 % 0.00 in /  0 mm
05:34 48.0 °F /  8.9 °C 44.0 °F /  6.7 °C 29.78 in /  1008.4 hPa Calm     86 % 0.00 in /  0 mm
05:39 47.9 °F /  8.8 °C 43.9 °F /  6.6 °C 29.78 in /  1008.4 hPa Calm     86 % 0.00 in /  0 mm
05:44 47.8 °F /  8.8 °C 43.8 °F /  6.6 °C 29.79 in /  1008.7 hPa Calm     86 % 0.00 in /  0 mm
05:49 47.6 °F /  8.7 °C 43.6 °F /  6.4 °C 29.79 in /  1008.7 hPa Calm     86 % 0.00 in /  0 mm
05:54 47.4 °F /  8.6 °C 43.7 °F /  6.5 °C 29.79 in /  1008.7 hPa Calm     87 % 0.00 in /  0 mm
05:59 47.2 °F /  8.4 °C 43.5 °F /  6.4 °C 29.79 in /  1008.7 hPa Calm     87 % 0.00 in /  0 mm
06:04 47.0 °F /  8.3 °C 43.3 °F /  6.3 °C 29.79 in /  1008.7 hPa Calm     87 % 0.00 in /  0 mm
06:09 46.8 °F /  8.2 °C 43.1 °F /  6.2 °C 29.79 in /  1008.7 hPa Calm     87 % 0.00 in /  0 mm
06:14 46.6 °F /  8.1 °C 43.2 °F /  6.2 °C 29.79 in /  1008.7 hPa Calm     88 % 0.00 in /  0 mm
06:19 46.3 °F /  7.9 °C 42.9 °F /  6.1 °C 29.79 in /  1008.7 hPa Calm     88 % 0.00 in /  0 mm
06:24 46.1 °F /  7.8 °C 42.7 °F /  5.9 °C 29.80 in /  1009 hPa Calm     88 % 0.00 in /  0 mm
06:29 45.9 °F /  7.7 °C 42.5 °F /  5.8 °C 29.80 in /  1009 hPa Calm     88 % 0.00 in /  0 mm
06:34 45.7 °F /  7.6 °C 42.6 °F /  5.9 °C 29.80 in /  1009 hPa Calm     89 % 0.00 in /  0 mm
06:39 45.6 °F /  7.6 °C 42.5 °F /  5.8 °C 29.80 in /  1009 hPa Calm     89 % 0.00 in /  0 mm
06:44 45.6 °F /  7.6 °C 42.8 °F /  6 °C 29.81 in /  1009.4 hPa Calm     90 % 0.00 in /  0 mm
06:49 45.5 °F /  7.5 °C 42.7 °F /  5.9 °C 29.81 in /  1009.4 hPa Calm     90 % 0.00 in /  0 mm
06:54 45.4 °F /  7.4 °C 42.6 °F /  5.9 °C 29.81 in /  1009.4 hPa Calm     90 % 0.00 in /  0 mm
06:59 45.4 °F /  7.4 °C 42.6 °F /  5.9 °C 29.81 in /  1009.4 hPa Calm     90 % 0.00 in /  0 mm
07:04 45.4 °F /  7.4 °C 42.6 °F /  5.9 °C 29.81 in /  1009.4 hPa Calm     90 % 0.00 in /  0 mm
07:09 45.5 °F /  7.5 °C 42.7 °F /  5.9 °C 29.81 in /  1009.4 hPa Calm     90 % 0.00 in /  0 mm
07:14 45.5 °F /  7.5 °C 43.0 °F /  6.1 °C 29.82 in /  1009.7 hPa Calm     91 % 0.00 in /  0 mm
07:19 45.5 °F /  7.5 °C 43.0 °F /  6.1 °C 29.82 in /  1009.7 hPa Calm     91 % 0.00 in /  0 mm
07:24 45.6 °F /  7.6 °C 43.1 °F /  6.2 °C 29.82 in /  1009.7 hPa Calm     91 % 0.00 in /  0 mm
07:29 45.8 °F /  7.7 °C 43.3 °F /  6.3 °C 29.82 in /  1009.7 hPa SW 2.3 mph /  3.7 km/h 1.5 mph /  2.4 km/h 91 % 0.00 in /  0 mm
07:34 46.1 °F /  7.8 °C 43.9 °F /  6.6 °C 29.82 in /  1009.7 hPa Calm     92 % 0.00 in /  0 mm
07:39 46.6 °F /  8.1 °C 44.4 °F /  6.9 °C 29.83 in /  1010 hPa SW 3.5 mph /  5.6 km/h 1.6 mph /  2.6 km/h 92 % 0.00 in /  0 mm
07:44 47.1 °F /  8.4 °C 44.9 °F /  7.2 °C 29.83 in /  1010 hPa Calm     92 % 0.00 in /  0 mm
07:49 47.4 °F /  8.6 °C 45.2 °F /  7.3 °C 29.83 in /  1010 hPa SW 3.5 mph /  5.6 km/h 1.5 mph /  2.4 km/h 92 % 0.00 in /  0 mm
07:54 47.7 °F /  8.7 °C 45.2 °F /  7.3 °C 29.83 in /  1010 hPa Calm     91 % 0.00 in /  0 mm
07:59 48.0 °F /  8.9 °C 45.5 °F /  7.5 °C 29.83 in /  1010 hPa Calm     91 % 0.00 in /  0 mm
08:04 48.7 °F /  9.3 °C 46.2 °F /  7.9 °C 29.83 in /  1010 hPa SW 1.0 mph /  1.6 km/h 0.2 mph /  0.3 km/h 91 % 0.00 in /  0 mm
08:09 49.5 °F /  9.7 °C 46.7 °F /  8.2 °C 29.83 in /  1010 hPa SW 3.5 mph /  5.6 km/h 1.8 mph /  2.9 km/h 90 % 0.00 in /  0 mm
08:14 50.3 °F /  10.2 °C 46.9 °F /  8.3 °C 29.83 in /  1010 hPa SW 3.0 mph /  4.8 km/h 1.7 mph /  2.7 km/h 88 % 0.00 in /  0 mm
08:19 51.0 °F /  10.6 °C 47.0 °F /  8.3 °C 29.84 in /  1010.4 hPa Calm     86 % 0.00 in /  0 mm
08:24 51.6 °F /  10.9 °C 47.2 °F /  8.4 °C 29.84 in /  1010.4 hPa SW 3.5 mph /  5.6 km/h 1.1 mph /  1.8 km/h 85 % 0.00 in /  0 mm
08:29 52.1 °F /  11.2 °C 46.8 °F /  8.2 °C 29.84 in /  1010.4 hPa SW 3.5 mph /  5.6 km/h 2.2 mph /  3.5 km/h 82 % 0.00 in /  0 mm
08:34 52.6 °F /  11.4 °C 47.3 °F /  8.5 °C 29.84 in /  1010.4 hPa SW 3.5 mph /  5.6 km/h 2.0 mph /  3.2 km/h 82 % 0.00 in /  0 mm
08:39 53.0 °F /  11.7 °C 46.7 °F /  8.2 °C 29.84 in /  1010.4 hPa SW 2.3 mph /  3.7 km/h   79 % 0.00 in /  0 mm
08:44 53.4 °F /  11.9 °C 46.7 °F /  8.2 °C 29.84 in /  1010.4 hPa Calm     78 % 0.00 in /  0 mm
08:49 54.3 °F /  12.4 °C 47.6 °F /  8.7 °C 29.84 in /  1010.4 hPa SW 2.3 mph /  3.7 km/h 0.6 mph /  1 km/h 78 % 0.00 in /  0 mm
08:54 55.3 °F /  12.9 °C 47.9 °F /  8.8 °C 29.84 in /  1010.4 hPa SW 3.5 mph /  5.6 km/h 2.5 mph /  4 km/h 76 % 0.00 in /  0 mm
08:59 56.1 °F /  13.4 °C 47.6 °F /  8.7 °C 29.84 in /  1010.4 hPa SW 4.0 mph /  6.4 km/h 4.4 mph /  7.1 km/h 73 % 0.00 in /  0 mm
09:04 56.6 °F /  13.7 °C 46.9 °F /  8.3 °C 29.85 in /  1010.7 hPa SW 6.9 mph /  11.1 km/h 5.1 mph /  8.2 km/h 70 % 0.00 in /  0 mm
09:09 56.5 °F /  13.6 °C 46.4 °F /  8 °C 29.85 in /  1010.7 hPa SW 7.0 mph /  11.3 km/h 5.2 mph /  8.4 km/h 69 % 0.00 in /  0 mm
09:14 56.7 °F /  13.7 °C 47.0 °F /  8.3 °C 29.85 in /  1010.7 hPa North 4.0 mph /  6.4 km/h 2.7 mph /  4.3 km/h 70 % 0.00 in /  0 mm
09:19 56.8 °F /  13.8 °C 46.3 °F /  7.9 °C 29.85 in /  1010.7 hPa North 9.2 mph /  14.8 km/h 4.4 mph /  7.1 km/h 68 % 0.00 in /  0 mm
09:24 57.0 °F /  13.9 °C 46.5 °F /  8.1 °C 29.85 in /  1010.7 hPa WSW 8.1 mph /  13 km/h 6.9 mph /  11.1 km/h 68 % 0.00 in /  0 mm
09:29 57.2 °F /  14 °C 46.7 °F /  8.2 °C 29.85 in /  1010.7 hPa WSW 4.6 mph /  7.4 km/h 3.9 mph /  6.3 km/h 68 % 0.00 in /  0 mm
09:34 57.9 °F /  14.4 °C 47.4 °F /  8.6 °C 29.86 in /  1011.1 hPa WSW 3.5 mph /  5.6 km/h 3.5 mph /  5.6 km/h 68 % 0.00 in /  0 mm
09:39 58.1 °F /  14.5 °C 46.8 °F /  8.2 °C 29.86 in /  1011.1 hPa WSW 8.1 mph /  13 km/h 3.6 mph /  5.8 km/h 66 % 0.00 in /  0 mm
09:44 58.0 °F /  14.4 °C 45.9 °F /  7.7 °C 29.86 in /  1011.1 hPa WSW 8.0 mph /  12.9 km/h 3.5 mph /  5.6 km/h 64 % 0.00 in /  0 mm
09:49 58.2 °F /  14.6 °C 46.1 °F /  7.8 °C 29.86 in /  1011.1 hPa West 11.5 mph /  18.5 km/h 5.6 mph /  9 km/h 64 % 0.00 in /  0 mm
09:54 58.3 °F /  14.6 °C 46.6 °F /  8.1 °C 29.85 in /  1010.7 hPa West 8.1 mph /  13 km/h 2.6 mph /  4.2 km/h 65 % 0.00 in /  0 mm
09:59 58.6 °F /  14.8 °C 46.5 °F /  8.1 °C 29.85 in /  1010.7 hPa West 3.5 mph /  5.6 km/h 1.9 mph /  3.1 km/h 64 % 0.00 in /  0 mm
10:04 59.2 °F /  15.1 °C 46.6 °F /  8.1 °C 29.85 in /  1010.7 hPa West 6.9 mph /  11.1 km/h 4.3 mph /  6.9 km/h 63 % 0.00 in /  0 mm
10:09 58.9 °F /  14.9 °C 45.9 °F /  7.7 °C 29.86 in /  1011.1 hPa West 4.6 mph /  7.4 km/h 3.1 mph /  5 km/h 62 % 0.00 in /  0 mm
10:14 58.5 °F /  14.7 °C 45.9 °F /  7.7 °C 29.86 in /  1011.1 hPa West 5.8 mph /  9.3 km/h 4.3 mph /  6.9 km/h 63 % 0.00 in /  0 mm
10:19 58.7 °F /  14.8 °C 46.1 °F /  7.8 °C 29.85 in /  1010.7 hPa West 8.0 mph /  12.9 km/h 3.8 mph /  6.1 km/h 63 % 0.00 in /  0 mm
10:24 59.1 °F /  15.1 °C 45.2 °F /  7.3 °C 29.86 in /  1011.1 hPa North 6.0 mph /  9.7 km/h 4.3 mph /  6.9 km/h 60 % 0.00 in /  0 mm
10:29 59.3 °F /  15.2 °C 45.4 °F /  7.4 °C 29.86 in /  1011.1 hPa WNW 4.6 mph /  7.4 km/h 4.2 mph /  6.8 km/h 60 % 0.00 in /  0 mm
10:34 59.9 °F /  15.5 °C 46.0 °F /  7.8 °C 29.86 in /  1011.1 hPa WNW 3.5 mph /  5.6 km/h 2.6 mph /  4.2 km/h 60 % 0.00 in /  0 mm
10:39 61.1 °F /  16.2 °C 46.2 °F /  7.9 °C 29.86 in /  1011.1 hPa WNW 6.0 mph /  9.7 km/h 5.9 mph /  9.5 km/h 58 % 0.00 in /  0 mm
10:44 60.8 °F /  16 °C 45.5 °F /  7.5 °C 29.86 in /  1011.1 hPa NW 9.2 mph /  14.8 km/h 6.4 mph /  10.3 km/h 57 % 0.00 in /  0 mm
10:49 60.7 °F /  15.9 °C 46.3 °F /  7.9 °C 29.85 in /  1010.7 hPa NW 6.9 mph /  11.1 km/h 6.2 mph /  10 km/h 59 % 0.00 in /  0 mm
10:54 60.7 °F /  15.9 °C 45.8 °F /  7.7 °C 29.85 in /  1010.7 hPa NW 9.2 mph /  14.8 km/h 5.0 mph /  8 km/h 58 % 0.00 in /  0 mm
10:59 60.7 °F /  15.9 °C 45.8 °F /  7.7 °C 29.85 in /  1010.7 hPa NW 6.9 mph /  11.1 km/h 4.7 mph /  7.6 km/h 58 % 0.00 in /  0 mm
11:04 61.0 °F /  16.1 °C 45.2 °F /  7.3 °C 29.85 in /  1010.7 hPa NW 8.1 mph /  13 km/h 4.6 mph /  7.4 km/h 56 % 0.00 in /  0 mm
11:09 60.9 °F /  16.1 °C 45.1 °F /  7.3 °C 29.85 in /  1010.7 hPa NW 3.5 mph /  5.6 km/h 3.0 mph /  4.8 km/h 56 % 0.00 in /  0 mm
11:14 61.2 °F /  16.2 °C 46.3 °F /  7.9 °C 29.85 in /  1010.7 hPa NW 6.0 mph /  9.7 km/h 2.6 mph /  4.2 km/h 58 % 0.00 in /  0 mm
11:19 62.4 °F /  16.9 °C 46.5 °F /  8.1 °C 29.85 in /  1010.7 hPa North 9.2 mph /  14.8 km/h 4.9 mph /  7.9 km/h 56 % 0.00 in /  0 mm
11:24 62.5 °F /  16.9 °C 47.1 °F /  8.4 °C 29.85 in /  1010.7 hPa WNW 8.0 mph /  12.9 km/h 7.1 mph /  11.4 km/h 57 % 0.00 in /  0 mm
11:29 62.4 °F /  16.9 °C 46.5 °F /  8.1 °C 29.84 in /  1010.4 hPa NW 8.1 mph /  13 km/h 4.7 mph /  7.6 km/h 56 % 0.00 in /  0 mm
11:34 63.1 °F /  17.3 °C 47.1 °F /  8.4 °C 29.84 in /  1010.4 hPa NNW 4.0 mph /  6.4 km/h 3.0 mph /  4.8 km/h 56 % 0.00 in /  0 mm
11:39 63.6 °F /  17.6 °C 47.1 °F /  8.4 °C 29.84 in /  1010.4 hPa North 3.5 mph /  5.6 km/h 2.4 mph /  3.9 km/h 55 % 0.00 in /  0 mm
11:44 64.6 °F /  18.1 °C 47.6 °F /  8.7 °C 29.84 in /  1010.4 hPa North 5.0 mph /  8 km/h 2.4 mph /  3.9 km/h 54 % 0.00 in /  0 mm
11:49 65.1 °F /  18.4 °C 47.5 °F /  8.6 °C 29.84 in /  1010.4 hPa North 8.0 mph /  12.9 km/h 4.7 mph /  7.6 km/h 53 % 0.00 in /  0 mm
11:54 64.6 °F /  18.1 °C 47.6 °F /  8.7 °C 29.84 in /  1010.4 hPa NNW 8.1 mph /  13 km/h 5.6 mph /  9 km/h 54 % 0.00 in /  0 mm
11:59 64.5 °F /  18.1 °C 47.0 °F /  8.3 °C 29.84 in /  1010.4 hPa NNW 4.6 mph /  7.4 km/h 1.3 mph /  2.1 km/h 53 % 0.00 in /  0 mm
12:04 64.3 °F /  17.9 °C 47.3 °F /  8.5 °C 29.84 in /  1010.4 hPa NNW 5.8 mph /  9.3 km/h 3.6 mph /  5.8 km/h 54 % 0.00 in /  0 mm
12:09 64.1 °F /  17.8 °C 47.1 °F /  8.4 °C 29.83 in /  1010 hPa NW 6.9 mph /  11.1 km/h 3.1 mph /  5 km/h 54 % 0.00 in /  0 mm
12:14 64.7 °F /  18.2 °C 47.2 °F /  8.4 °C 29.83 in /  1010 hPa NW 3.5 mph /  5.6 km/h 1.4 mph /  2.3 km/h 53 % 0.00 in /  0 mm
12:19 65.1 °F /  18.4 °C 47.5 °F /  8.6 °C 29.83 in /  1010 hPa North 7.0 mph /  11.3 km/h 4.5 mph /  7.2 km/h 53 % 0.00 in /  0 mm
12:24 65.3 °F /  18.5 °C 47.2 °F /  8.4 °C 29.83 in /  1010 hPa NW 6.9 mph /  11.1 km/h 4.3 mph /  6.9 km/h 52 % 0.00 in /  0 mm
12:29 65.7 °F /  18.7 °C 48.6 °F /  9.2 °C 29.83 in /  1010 hPa NW 10.4 mph /  16.7 km/h 5.7 mph /  9.2 km/h 54 % 0.00 in /  0 mm
12:34 65.9 °F /  18.8 °C 47.3 °F /  8.5 °C 29.83 in /  1010 hPa WNW 5.0 mph /  8 km/h 3.9 mph /  6.3 km/h 51 % 0.00 in /  0 mm
12:39 66.0 °F /  18.9 °C 47.3 °F /  8.5 °C 29.82 in /  1009.7 hPa NW 11.5 mph /  18.5 km/h 5.8 mph /  9.3 km/h 51 % 0.00 in /  0 mm
12:44 66.1 °F /  18.9 °C 47.4 °F /  8.6 °C 29.82 in /  1009.7 hPa NW 6.9 mph /  11.1 km/h 2.6 mph /  4.2 km/h 51 % 0.00 in /  0 mm
12:49 66.2 °F /  19 °C 47.5 °F /  8.6 °C 29.82 in /  1009.7 hPa NW 9.2 mph /  14.8 km/h 5.8 mph /  9.3 km/h 51 % 0.00 in /  0 mm
12:54 66.4 °F /  19.1 °C 47.7 °F /  8.7 °C 29.82 in /  1009.7 hPa NW 5.0 mph /  8 km/h 3.0 mph /  4.8 km/h 51 % 0.00 in /  0 mm
12:59 66.9 °F /  19.4 °C 47.6 °F /  8.7 °C 29.82 in /  1009.7 hPa NW 10.4 mph /  16.7 km/h 5.8 mph /  9.3 km/h 50 % 0.00 in /  0 mm
13:04 66.7 °F /  19.3 °C 47.5 °F /  8.6 °C 29.82 in /  1009.7 hPa NW 5.8 mph /  9.3 km/h 3.1 mph /  5 km/h 50 % 0.00 in /  0 mm
13:09 67.2 °F /  19.6 °C 47.9 °F /  8.8 °C 29.81 in /  1009.4 hPa NW 6.9 mph /  11.1 km/h 3.4 mph /  5.5 km/h 50 % 0.00 in /  0 mm
13:14 67.4 °F /  19.7 °C 48.1 °F /  8.9 °C 29.81 in /  1009.4 hPa NW 9.2 mph /  14.8 km/h 6.1 mph /  9.8 km/h 50 % 0.00 in /  0 mm
13:19 67.4 °F /  19.7 °C 48.1 °F /  8.9 °C 29.81 in /  1009.4 hPa NNW 6.9 mph /  11.1 km/h 3.6 mph /  5.8 km/h 50 % 0.00 in /  0 mm
13:24 68.2 °F /  20.1 °C 49.4 °F /  9.7 °C 29.81 in /  1009.4 hPa NNW 8.1 mph /  13 km/h 7.5 mph /  12.1 km/h 51 % 0.00 in /  0 mm
13:29 68.2 °F /  20.1 °C 48.8 °F /  9.3 °C 29.80 in /  1009 hPa NNW 7.0 mph /  11.3 km/h 4.4 mph /  7.1 km/h 50 % 0.00 in /  0 mm
13:34 68.4 °F /  20.2 °C 49.0 °F /  9.4 °C 29.80 in /  1009 hPa North 9.2 mph /  14.8 km/h 4.8 mph /  7.7 km/h 50 % 0.00 in /  0 mm
13:39 68.7 °F /  20.4 °C 48.8 °F /  9.3 °C 29.80 in /  1009 hPa North 6.9 mph /  11.1 km/h 4.4 mph /  7.1 km/h 49 % 0.00 in /  0 mm
13:44 68.9 °F /  20.5 °C 50.0 °F /  10 °C 29.80 in /  1009 hPa NNW 8.1 mph /  13 km/h 4.4 mph /  7.1 km/h 51 % 0.00 in /  0 mm
13:49 69.5 °F /  20.8 °C 50.0 °F /  10 °C 29.79 in /  1008.7 hPa NW 6.9 mph /  11.1 km/h 1.5 mph /  2.4 km/h 50 % 0.00 in /  0 mm
13:54 69.2 °F /  20.7 °C 49.2 °F /  9.6 °C 29.80 in /  1009 hPa NW 9.2 mph /  14.8 km/h 5.1 mph /  8.2 km/h 49 % 0.00 in /  0 mm
13:59 69.0 °F /  20.6 °C 49.6 °F /  9.8 °C 29.79 in /  1008.7 hPa North 8.1 mph /  13 km/h 4.9 mph /  7.9 km/h 50 % 0.00 in /  0 mm
14:04 68.9 °F /  20.5 °C 48.9 °F /  9.4 °C 29.79 in /  1008.7 hPa North 5.8 mph /  9.3 km/h 1.0 mph /  1.6 km/h 49 % 0.00 in /  0 mm
14:09 69.3 °F /  20.7 °C 49.3 °F /  9.6 °C 29.79 in /  1008.7 hPa WNW 11.0 mph /  17.7 km/h 7.2 mph /  11.6 km/h 49 % 0.00 in /  0 mm
14:14 69.5 °F /  20.8 °C 49.5 °F /  9.7 °C 29.79 in /  1008.7 hPa WNW 10.4 mph /  16.7 km/h 7.8 mph /  12.6 km/h 49 % 0.00 in /  0 mm
14:19 69.1 °F /  20.6 °C 49.7 °F /  9.8 °C 29.79 in /  1008.7 hPa WNW 6.9 mph /  11.1 km/h 4.3 mph /  6.9 km/h 50 % 0.00 in /  0 mm
14:24 69.6 °F /  20.9 °C 49.6 °F /  9.8 °C 29.79 in /  1008.7 hPa WNW 9.2 mph /  14.8 km/h 7.4 mph /  11.9 km/h 49 % 0.00 in /  0 mm
14:29 69.9 °F /  21.1 °C 50.4 °F /  10.2 °C 29.79 in /  1008.7 hPa WNW 7.0 mph /  11.3 km/h 4.2 mph /  6.8 km/h 50 % 0.00 in /  0 mm
14:34 70.3 °F /  21.3 °C 50.2 °F /  10.1 °C 29.78 in /  1008.4 hPa NW 6.0 mph /  9.7 km/h 4.8 mph /  7.7 km/h 49 % 0.00 in /  0 mm
14:39 70.2 °F /  21.2 °C 49.6 °F /  9.8 °C 29.78 in /  1008.4 hPa WNW 3.5 mph /  5.6 km/h 1.7 mph /  2.7 km/h 48 % 0.00 in /  0 mm
14:44 70.0 °F /  21.1 °C 50.0 °F /  10 °C 29.78 in /  1008.4 hPa NW 10.4 mph /  16.7 km/h 7.7 mph /  12.4 km/h 49 % 0.00 in /  0 mm
14:49 69.9 °F /  21.1 °C 49.9 °F /  9.9 °C 29.78 in /  1008.4 hPa North 7.0 mph /  11.3 km/h 5.7 mph /  9.2 km/h 49 % 0.00 in /  0 mm
14:54 70.3 °F /  21.3 °C 49.7 °F /  9.8 °C 29.78 in /  1008.4 hPa WNW 3.5 mph /  5.6 km/h 2.4 mph /  3.9 km/h 48 % 0.00 in /  0 mm
14:59 71.1 °F /  21.7 °C 49.8 °F /  9.9 °C 29.77 in /  1008 hPa North 17.3 mph /  27.8 km/h 8.8 mph /  14.2 km/h 47 % 0.00 in /  0 mm
15:04 70.6 °F /  21.4 °C 49.4 °F /  9.7 °C 29.77 in /  1008 hPa West 3.5 mph /  5.6 km/h 3.2 mph /  5.1 km/h 47 % 0.00 in /  0 mm
15:09 70.9 °F /  21.6 °C 49.7 °F /  9.8 °C 29.77 in /  1008 hPa West 4.0 mph /  6.4 km/h 2.3 mph /  3.7 km/h 47 % 0.00 in /  0 mm
15:14 71.6 °F /  22 °C 50.3 °F /  10.2 °C 29.77 in /  1008 hPa WNW 9.2 mph /  14.8 km/h 5.4 mph /  8.7 km/h 47 % 0.00 in /  0 mm
15:19 71.6 °F /  22 °C 49.7 °F /  9.8 °C 29.77 in /  1008 hPa WNW 3.0 mph /  4.8 km/h 2.6 mph /  4.2 km/h 46 % 0.00 in /  0 mm
15:24 71.7 °F /  22.1 °C 49.2 °F /  9.6 °C 29.76 in /  1007.7 hPa WNW 4.6 mph /  7.4 km/h 2.3 mph /  3.7 km/h 45 % 0.00 in /  0 mm
15:29 72.2 °F /  22.3 °C 49.7 °F /  9.8 °C 29.76 in /  1007.7 hPa WNW 3.5 mph /  5.6 km/h 3.5 mph /  5.6 km/h 45 % 0.00 in /  0 mm
15:34 73.0 °F /  22.8 °C 49.8 °F /  9.9 °C 29.76 in /  1007.7 hPa WNW 6.9 mph /  11.1 km/h 4.2 mph /  6.8 km/h 44 % 0.00 in /  0 mm
15:39 73.2 °F /  22.9 °C 50.0 °F /  10 °C 29.75 in /  1007.3 hPa Calm   0.1 mph /  0.2 km/h 44 % 0.00 in /  0 mm
15:44 74.0 °F /  23.3 °C 50.1 °F /  10.1 °C 29.75 in /  1007.3 hPa WNW 9.0 mph /  14.5 km/h 6.8 mph /  10.9 km/h 43 % 0.00 in /  0 mm
15:49 73.6 °F /  23.1 °C 50.3 °F /  10.2 °C 29.75 in /  1007.3 hPa WNW 8.1 mph /  13 km/h 5.4 mph /  8.7 km/h 44 % 0.00 in /  0 mm
15:54 73.5 °F /  23.1 °C 49.6 °F /  9.8 °C 29.75 in /  1007.3 hPa WNW 2.3 mph /  3.7 km/h 1.2 mph /  1.9 km/h 43 % 0.00 in /  0 mm
15:59 74.0 °F /  23.3 °C 50.7 °F /  10.4 °C 29.75 in /  1007.3 hPa WNW 3.5 mph /  5.6 km/h 2.7 mph /  4.3 km/h 44 % 0.00 in /  0 mm
16:04 74.1 °F /  23.4 °C 50.2 °F /  10.1 °C 29.74 in /  1007 hPa WNW 4.6 mph /  7.4 km/h 5.4 mph /  8.7 km/h 43 % 0.00 in /  0 mm
16:09 74.6 °F /  23.7 °C 50.6 °F /  10.3 °C 29.74 in /  1007 hPa North 5.8 mph /  9.3 km/h 2.5 mph /  4 km/h 43 % 0.00 in /  0 mm
16:14 75.2 °F /  24 °C 49.9 °F /  9.9 °C 29.74 in /  1007 hPa WNW 2.3 mph /  3.7 km/h 0.9 mph /  1.4 km/h 41 % 0.00 in /  0 mm
16:19 75.2 °F /  24 °C 50.5 °F /  10.3 °C 29.74 in /  1007 hPa North 7.0 mph /  11.3 km/h 4.9 mph /  7.9 km/h 42 % 0.00 in /  0 mm
16:24 74.5 °F /  23.6 °C 49.9 °F /  9.9 °C 29.74 in /  1007 hPa North 10.4 mph /  16.7 km/h 5.1 mph /  8.2 km/h 42 % 0.00 in /  0 mm
16:29 74.3 °F /  23.5 °C 49.7 °F /  9.8 °C 29.73 in /  1006.7 hPa NW 7.0 mph /  11.3 km/h 5.5 mph /  8.9 km/h 42 % 0.00 in /  0 mm
16:34 74.5 °F /  23.6 °C 51.2 °F /  10.7 °C 29.73 in /  1006.7 hPa NW 9.2 mph /  14.8 km/h 5.2 mph /  8.4 km/h 44 % 0.00 in /  0 mm
16:39 74.7 °F /  23.7 °C 50.1 °F /  10.1 °C 29.73 in /  1006.7 hPa North 8.1 mph /  13 km/h 4.7 mph /  7.6 km/h 42 % 0.00 in /  0 mm
16:44 74.3 °F /  23.5 °C 49.1 °F /  9.5 °C 29.73 in /  1006.7 hPa WNW 4.6 mph /  7.4 km/h 1.5 mph /  2.4 km/h 41 % 0.00 in /  0 mm
16:49 74.8 °F /  23.8 °C 50.8 °F /  10.4 °C 29.73 in /  1006.7 hPa WNW 5.0 mph /  8 km/h 2.8 mph /  4.5 km/h 43 % 0.00 in /  0 mm
16:54 75.2 °F /  24 °C 49.9 °F /  9.9 °C 29.73 in /  1006.7 hPa WNW 3.5 mph /  5.6 km/h 2.0 mph /  3.2 km/h 41 % 0.00 in /  0 mm
16:59 75.1 °F /  23.9 °C 49.8 °F /  9.9 °C 29.73 in /  1006.7 hPa North 11.5 mph /  18.5 km/h 5.4 mph /  8.7 km/h 41 % 0.00 in /  0 mm
17:04 74.6 °F /  23.7 °C 50.0 °F /  10 °C 29.73 in /  1006.7 hPa North 8.1 mph /  13 km/h 6.3 mph /  10.1 km/h 42 % 0.00 in /  0 mm
17:09 75.2 °F /  24 °C 50.5 °F /  10.3 °C 29.73 in /  1006.7 hPa WNW 5.8 mph /  9.3 km/h 3.4 mph /  5.5 km/h 42 % 0.00 in /  0 mm
17:14 75.6 °F /  24.2 °C 50.2 °F /  10.1 °C 29.72 in /  1006.3 hPa WNW 8.1 mph /  13 km/h 5.8 mph /  9.3 km/h 41 % 0.00 in /  0 mm
17:19 75.3 °F /  24.1 °C 50.0 °F /  10 °C 29.72 in /  1006.3 hPa North 5.8 mph /  9.3 km/h 5.6 mph /  9 km/h 41 % 0.00 in /  0 mm
17:24 75.1 °F /  23.9 °C 49.8 °F /  9.9 °C 29.72 in /  1006.3 hPa WNW 4.6 mph /  7.4 km/h 1.9 mph /  3.1 km/h 41 % 0.00 in /  0 mm
17:29 75.5 °F /  24.2 °C 50.1 °F /  10.1 °C 29.72 in /  1006.3 hPa West 3.5 mph /  5.6 km/h 1.0 mph /  1.6 km/h 41 % 0.00 in /  0 mm
17:34 76.0 °F /  24.4 °C 49.9 °F /  9.9 °C 29.72 in /  1006.3 hPa WNW 3.5 mph /  5.6 km/h 2.2 mph /  3.5 km/h 40 % 0.00 in /  0 mm
17:39 76.3 °F /  24.6 °C 50.2 °F /  10.1 °C 29.71 in /  1006 hPa West 2.3 mph /  3.7 km/h 0.8 mph /  1.3 km/h 40 % 0.00 in /  0 mm
17:44 76.8 °F /  24.9 °C 50.0 °F /  10 °C 29.71 in /  1006 hPa WNW 6.9 mph /  11.1 km/h 3.4 mph /  5.5 km/h 39 % 0.00 in /  0 mm
17:49 76.9 °F /  24.9 °C 50.7 °F /  10.4 °C 29.71 in /  1006 hPa North 8.0 mph /  12.9 km/h 4.9 mph /  7.9 km/h 40 % 0.00 in /  0 mm
17:54 76.4 °F /  24.7 °C 50.3 °F /  10.2 °C 29.71 in /  1006 hPa WNW 5.8 mph /  9.3 km/h 3.7 mph /  6 km/h 40 % 0.00 in /  0 mm
17:59 76.4 °F /  24.7 °C 50.3 °F /  10.2 °C 29.71 in /  1006 hPa WNW 4.6 mph /  7.4 km/h 1.7 mph /  2.7 km/h 40 % 0.00 in /  0 mm
18:04 76.4 °F /  24.7 °C 50.3 °F /  10.2 °C 29.71 in /  1006 hPa WNW 2.3 mph /  3.7 km/h   40 % 0.00 in /  0 mm
18:09 76.8 °F /  24.9 °C 50.6 °F /  10.3 °C 29.71 in /  1006 hPa WNW 1.2 mph /  1.9 km/h 2.3 mph /  3.7 km/h 40 % 0.00 in /  0 mm
18:14 76.7 °F /  24.8 °C 50.6 °F /  10.3 °C 29.71 in /  1006 hPa WNW 3.5 mph /  5.6 km/h 2.1 mph /  3.4 km/h 40 % 0.00 in /  0 mm
18:19 77.2 °F /  25.1 °C 51.0 °F /  10.6 °C 29.71 in /  1006 hPa WNW 6.9 mph /  11.1 km/h 3.5 mph /  5.6 km/h 40 % 0.00 in /  0 mm
18:24 77.8 °F /  25.4 °C 50.9 °F /  10.5 °C 29.71 in /  1006 hPa WNW 2.3 mph /  3.7 km/h 0.7 mph /  1.1 km/h 39 % 0.00 in /  0 mm
18:29 77.2 °F /  25.1 °C 50.3 °F /  10.2 °C 29.71 in /  1006 hPa WNW 5.8 mph /  9.3 km/h 3.5 mph /  5.6 km/h 39 % 0.00 in /  0 mm
18:34 76.5 °F /  24.7 °C 50.4 °F /  10.2 °C 29.71 in /  1006 hPa WNW 5.8 mph /  9.3 km/h 4.6 mph /  7.4 km/h 40 % 0.00 in /  0 mm
18:39 76.5 °F /  24.7 °C 51.0 °F /  10.6 °C 29.70 in /  1005.6 hPa WNW 4.0 mph /  6.4 km/h 2.2 mph /  3.5 km/h 41 % 0.00 in /  0 mm
18:44 76.5 °F /  24.7 °C 50.4 °F /  10.2 °C 29.70 in /  1005.6 hPa WNW 6.0 mph /  9.7 km/h 4.6 mph /  7.4 km/h 40 % 0.00 in /  0 mm
18:49 76.1 °F /  24.5 °C 50.0 °F /  10 °C 29.70 in /  1005.6 hPa WNW 3.5 mph /  5.6 km/h 1.5 mph /  2.4 km/h 40 % 0.00 in /  0 mm
18:54 76.3 °F /  24.6 °C 50.9 °F /  10.5 °C 29.70 in /  1005.6 hPa WNW 4.6 mph /  7.4 km/h 2.8 mph /  4.5 km/h 41 % 0.00 in /  0 mm
18:59 76.3 °F /  24.6 °C 50.2 °F /  10.1 °C 29.70 in /  1005.6 hPa WNW 3.5 mph /  5.6 km/h 2.9 mph /  4.7 km/h 40 % 0.00 in /  0 mm
19:04 76.1 °F /  24.5 °C 51.3 °F /  10.7 °C 29.70 in /  1005.6 hPa WNW 3.5 mph /  5.6 km/h 2.9 mph /  4.7 km/h 42 % 0.00 in /  0 mm
19:09 76.0 °F /  24.4 °C 50.6 °F /  10.3 °C 29.70 in /  1005.6 hPa WNW 3.5 mph /  5.6 km/h 2.5 mph /  4 km/h 41 % 0.00 in /  0 mm
19:14 76.0 °F /  24.4 °C 50.6 °F /  10.3 °C 29.70 in /  1005.6 hPa WNW 3.5 mph /  5.6 km/h 0.1 mph /  0.2 km/h 41 % 0.00 in /  0 mm
19:19 76.5 °F /  24.7 °C 51.0 °F /  10.6 °C 29.70 in /  1005.6 hPa WNW 1.2 mph /  1.9 km/h 0.3 mph /  0.5 km/h 41 % 0.00 in /  0 mm
19:24 76.4 °F /  24.7 °C 51.0 °F /  10.6 °C 29.70 in /  1005.6 hPa WNW 2.3 mph /  3.7 km/h 0.4 mph /  0.6 km/h 41 % 0.00 in /  0 mm
19:29 76.3 °F /  24.6 °C 50.9 °F /  10.5 °C 29.70 in /  1005.6 hPa WNW 4.0 mph /  6.4 km/h 2.3 mph /  3.7 km/h 41 % 0.00 in /  0 mm
19:34 75.6 °F /  24.2 °C 51.5 °F /  10.8 °C 29.70 in /  1005.6 hPa WNW 3.5 mph /  5.6 km/h 0.4 mph /  0.6 km/h 43 % 0.00 in /  0 mm
19:39 75.7 °F /  24.3 °C 51.0 °F /  10.6 °C 29.70 in /  1005.6 hPa Calm     42 % 0.00 in /  0 mm
19:44 75.6 °F /  24.2 °C 51.5 °F /  10.8 °C 29.70 in /  1005.6 hPa WNW 2.3 mph /  3.7 km/h 0.4 mph /  0.6 km/h 43 % 0.00 in /  0 mm
19:49 75.4 °F /  24.1 °C 51.3 °F /  10.7 °C 29.70 in /  1005.6 hPa WNW 3.5 mph /  5.6 km/h 1.9 mph /  3.1 km/h 43 % 0.00 in /  0 mm
19:54 75.0 °F /  23.9 °C 51.6 °F /  10.9 °C 29.70 in /  1005.6 hPa WNW 4.0 mph /  6.4 km/h 3.1 mph /  5 km/h 44 % 0.00 in /  0 mm
19:59 74.2 °F /  23.4 °C 52.1 °F /  11.2 °C 29.70 in /  1005.6 hPa West 6.9 mph /  11.1 km/h 4.8 mph /  7.7 km/h 46 % 0.00 in /  0 mm
20:04 73.3 °F /  22.9 °C 52.4 °F /  11.3 °C 29.70 in /  1005.6 hPa West 8.1 mph /  13 km/h 5.8 mph /  9.3 km/h 48 % 0.00 in /  0 mm
20:09 72.6 °F /  22.6 °C 52.3 °F /  11.3 °C 29.70 in /  1005.6 hPa WSW 4.0 mph /  6.4 km/h 2.5 mph /  4 km/h 49 % 0.00 in /  0 mm
20:14 72.2 °F /  22.3 °C 52.0 °F /  11.1 °C 29.70 in /  1005.6 hPa WSW 4.6 mph /  7.4 km/h 4.3 mph /  6.9 km/h 49 % 0.00 in /  0 mm
20:19 71.7 °F /  22.1 °C 52.1 °F /  11.2 °C 29.71 in /  1006 hPa WSW 5.8 mph /  9.3 km/h 3.7 mph /  6 km/h 50 % 0.00 in /  0 mm
20:24 71.3 °F /  21.8 °C 52.2 °F /  11.2 °C 29.71 in /  1006 hPa WSW 3.5 mph /  5.6 km/h 1.4 mph /  2.3 km/h 51 % 0.00 in /  0 mm
20:29 70.9 °F /  21.6 °C 52.4 °F /  11.3 °C 29.71 in /  1006 hPa WSW 2.3 mph /  3.7 km/h 1.6 mph /  2.6 km/h 52 % 0.00 in /  0 mm
20:34 70.6 °F /  21.4 °C 52.6 °F /  11.4 °C 29.71 in /  1006 hPa WSW 3.5 mph /  5.6 km/h 1.5 mph /  2.4 km/h 53 % 0.00 in /  0 mm
20:39 70.2 °F /  21.2 °C 52.3 °F /  11.3 °C 29.71 in /  1006 hPa WSW 3.5 mph /  5.6 km/h 3.1 mph /  5 km/h 53 % 0.00 in /  0 mm
20:44 69.8 °F /  21 °C 52.4 °F /  11.3 °C 29.71 in /  1006 hPa WSW 4.6 mph /  7.4 km/h 3.0 mph /  4.8 km/h 54 % 0.00 in /  0 mm
20:49 69.5 °F /  20.8 °C 52.1 °F /  11.2 °C 29.71 in /  1006 hPa WSW 3.5 mph /  5.6 km/h 2.7 mph /  4.3 km/h 54 % 0.00 in /  0 mm
20:54 69.3 °F /  20.7 °C 52.4 °F /  11.3 °C 29.71 in /  1006 hPa WSW 3.5 mph /  5.6 km/h 1.1 mph /  1.8 km/h 55 % 0.00 in /  0 mm
20:59 69.0 °F /  20.6 °C 52.2 °F /  11.2 °C 29.71 in /  1006 hPa WSW 4.6 mph /  7.4 km/h 3.0 mph /  4.8 km/h 55 % 0.00 in /  0 mm
21:04 68.8 °F /  20.4 °C 52.0 °F /  11.1 °C 29.71 in /  1006 hPa WSW 3.5 mph /  5.6 km/h 2.5 mph /  4 km/h 55 % 0.00 in /  0 mm
21:09 68.5 °F /  20.3 °C 52.2 °F /  11.2 °C 29.71 in /  1006 hPa WSW 3.5 mph /  5.6 km/h 2.6 mph /  4.2 km/h 56 % 0.00 in /  0 mm
21:14 68.2 °F /  20.1 °C 52.4 °F /  11.3 °C 29.71 in /  1006 hPa WSW 4.0 mph /  6.4 km/h 2.8 mph /  4.5 km/h 57 % 0.00 in /  0 mm
21:19 68.0 °F /  20 °C 52.7 °F /  11.5 °C 29.72 in /  1006.3 hPa WSW 2.0 mph /  3.2 km/h 1.8 mph /  2.9 km/h 58 % 0.00 in /  0 mm
21:24 67.7 °F /  19.8 °C 52.4 °F /  11.3 °C 29.72 in /  1006.3 hPa WSW 3.5 mph /  5.6 km/h 1.8 mph /  2.9 km/h 58 % 0.00 in /  0 mm
21:29 67.4 °F /  19.7 °C 52.6 °F /  11.4 °C 29.72 in /  1006.3 hPa WSW 3.5 mph /  5.6 km/h 1.5 mph /  2.4 km/h 59 % 0.00 in /  0 mm
21:34 67.1 °F /  19.5 °C 52.3 °F /  11.3 °C 29.72 in /  1006.3 hPa WSW 8.0 mph /  12.9 km/h 4.3 mph /  6.9 km/h 59 % 0.00 in /  0 mm
21:39 67.0 °F /  19.4 °C 52.2 °F /  11.2 °C 29.72 in /  1006.3 hPa WSW 6.9 mph /  11.1 km/h 5.3 mph /  8.5 km/h 59 % 0.00 in /  0 mm
21:44 66.8 °F /  19.3 °C 52.5 °F /  11.4 °C 29.72 in /  1006.3 hPa SW 9.2 mph /  14.8 km/h 5.6 mph /  9 km/h 60 % 0.00 in /  0 mm
21:49 66.4 °F /  19.1 °C 52.5 °F /  11.4 °C 29.73 in /  1006.7 hPa SW 5.8 mph /  9.3 km/h 3.9 mph /  6.3 km/h 61 % 0.00 in /  0 mm
21:54 66.0 °F /  18.9 °C 52.6 °F /  11.4 °C 29.73 in /  1006.7 hPa SW 3.5 mph /  5.6 km/h 1.2 mph /  1.9 km/h 62 % 0.00 in /  0 mm
21:59 65.6 °F /  18.7 °C 52.7 °F /  11.5 °C 29.73 in /  1006.7 hPa SW 4.6 mph /  7.4 km/h 2.6 mph /  4.2 km/h 63 % 0.00 in /  0 mm
22:04 65.1 °F /  18.4 °C 52.6 °F /  11.4 °C 29.73 in /  1006.7 hPa SW 5.0 mph /  8 km/h 2.5 mph /  4 km/h 64 % 0.00 in /  0 mm
22:09 64.7 °F /  18.2 °C 52.7 °F /  11.5 °C 29.73 in /  1006.7 hPa SW 3.5 mph /  5.6 km/h 1.5 mph /  2.4 km/h 65 % 0.00 in /  0 mm
22:14 64.4 °F /  18 °C 52.8 °F /  11.6 °C 29.74 in /  1007 hPa SW 3.5 mph /  5.6 km/h 2.2 mph /  3.5 km/h 66 % 0.00 in /  0 mm
22:19 64.0 °F /  17.8 °C 52.8 °F /  11.6 °C 29.73 in /  1006.7 hPa SW 3.5 mph /  5.6 km/h 2.6 mph /  4.2 km/h 67 % 0.00 in /  0 mm
22:24 63.7 °F /  17.6 °C 52.9 °F /  11.6 °C 29.73 in /  1006.7 hPa SW 2.3 mph /  3.7 km/h 2.1 mph /  3.4 km/h 68 % 0.00 in /  0 mm
22:29 63.3 °F /  17.4 °C 53.0 °F /  11.7 °C 29.73 in /  1006.7 hPa SW 3.5 mph /  5.6 km/h 1.7 mph /  2.7 km/h 69 % 0.00 in /  0 mm
22:34 63.0 °F /  17.2 °C 52.7 °F /  11.5 °C 29.73 in /  1006.7 hPa SW 2.3 mph /  3.7 km/h 0.9 mph /  1.4 km/h 69 % 0.00 in /  0 mm
22:39 62.6 °F /  17 °C 52.7 °F /  11.5 °C 29.73 in /  1006.7 hPa SW 3.5 mph /  5.6 km/h 0.7 mph /  1.1 km/h 70 % 0.00 in /  0 mm
22:44 62.4 °F /  16.9 °C 52.9 °F /  11.6 °C 29.73 in /  1006.7 hPa SW 1.2 mph /  1.9 km/h 0.2 mph /  0.3 km/h 71 % 0.00 in /  0 mm
22:49 62.1 °F /  16.7 °C 52.6 °F /  11.4 °C 29.73 in /  1006.7 hPa SW 2.3 mph /  3.7 km/h 1.2 mph /  1.9 km/h 71 % 0.00 in /  0 mm
22:54 61.9 °F /  16.6 °C 52.8 °F /  11.6 °C 29.73 in /  1006.7 hPa SW 3.0 mph /  4.8 km/h 1.8 mph /  2.9 km/h 72 % 0.00 in /  0 mm
22:59 61.7 °F /  16.5 °C 52.6 °F /  11.4 °C 29.73 in /  1006.7 hPa SW 1.2 mph /  1.9 km/h 0.3 mph /  0.5 km/h 72 % 0.00 in /  0 mm
23:04 61.6 °F /  16.4 °C 52.5 °F /  11.4 °C 29.73 in /  1006.7 hPa SW 1.2 mph /  1.9 km/h   72 % 0.00 in /  0 mm
23:09 61.4 °F /  16.3 °C 52.7 °F /  11.5 °C 29.73 in /  1006.7 hPa SW 3.0 mph /  4.8 km/h 1.5 mph /  2.4 km/h 73 % 0.00 in /  0 mm
23:14 61.3 °F /  16.3 °C 52.6 °F /  11.4 °C 29.73 in /  1006.7 hPa SW 3.5 mph /  5.6 km/h 1.2 mph /  1.9 km/h 73 % 0.00 in /  0 mm
23:19 61.1 °F /  16.2 °C 52.4 °F /  11.3 °C 29.73 in /  1006.7 hPa SW 3.5 mph /  5.6 km/h 2.9 mph /  4.7 km/h 73 % 0.00 in /  0 mm
23:24 61.0 °F /  16.1 °C 52.7 °F /  11.5 °C 29.73 in /  1006.7 hPa SW 3.5 mph /  5.6 km/h 2.1 mph /  3.4 km/h 74 % 0.00 in /  0 mm
23:29 60.8 °F /  16 °C 52.5 °F /  11.4 °C 29.73 in /  1006.7 hPa SW 3.5 mph /  5.6 km/h 3.5 mph /  5.6 km/h 74 % 0.00 in /  0 mm
23:34 60.7 °F /  15.9 °C 52.4 °F /  11.3 °C 29.73 in /  1006.7 hPa SW 3.5 mph /  5.6 km/h 1.2 mph /  1.9 km/h 74 % 0.00 in /  0 mm
23:39 60.5 °F /  15.8 °C 52.5 °F /  11.4 °C 29.73 in /  1006.7 hPa SW 2.3 mph /  3.7 km/h 0.8 mph /  1.3 km/h 75 % 0.00 in /  0 mm
23:44 60.4 °F /  15.8 °C 52.4 °F /  11.3 °C 29.73 in /  1006.7 hPa SW 3.5 mph /  5.6 km/h 2.0 mph /  3.2 km/h 75 % 0.00 in /  0 mm
23:49 60.2 °F /  15.7 °C 52.6 °F /  11.4 °C 29.72 in /  1006.3 hPa SW 2.0 mph /  3.2 km/h 1.0 mph /  1.6 km/h 76 % 0.00 in /  0 mm
23:54 60.0 °F /  15.6 °C 52.4 °F /  11.3 °C 29.72 in /  1006.3 hPa SW 1.2 mph /  1.9 km/h 0.1 mph /  0.2 km/h 76 % 0.00 in /  0 mm
23:59 59.9 °F /  15.5 °C 52.7 °F /  11.5 °C 29.72 in /  1006.3 hPa SW 1.2 mph /  1.9 km/h   77 % 0.00 in /  0 mm
Ararat Weather
Compliments of Weather Underground - 2.5 mb
Click here to send mail.


ABOUT

Live weather data from Ararat, Victoria, Australia, 3377
Data uploaded from Cumulus every 5 minutes to Weather Underground.
This site then downloads the raw data for formatting and display.
Metric and imperial data can be displayed. Graphs and historical data available.
Includes Sun and Moon times and rain image live from BOM.

Check out Ararat Weather on Facebook, Twitter and Google +

Help support ongoing costs by checking out the ads





Follow @AraratWeather